Time;durP1;ratioP1;P1;durP2;ratioP2;P2;SDS_P1;SDS_P2;PMS_P1;PMS_P2;Temp;Humidity;BMP_temperature;BMP_pressure;BME280_temperature;BME280_humidity;BME280_pressure;Samples;Min_cycle;Max_cycle;Signal;HPM_P1;HPM_P2
2022/01/29 00:02:07;;;;;;;21.90;14.95;;;;;;;;;;5074609;28;20025;-79
2022/01/29 00:04:35;;;;;;;20.20;12.80;;;;;;;;;;5074733;28;20036;-79
2022/01/29 00:07:01;;;;;;;21.00;13.55;;;;;;;;;;5074494;28;20024;-81
2022/01/29 00:09:27;;;;;;;19.67;13.45;;;;;;;;;;5074560;28;20030;-79
2022/01/29 00:11:53;;;;;;;18.15;12.10;;;;;;;;;;5074348;28;20411;-80
2022/01/29 00:14:21;;;;;;;21.38;13.40;;;;;;;;;;5074471;28;20532;-79
2022/01/29 00:16:47;;;;;;;21.13;13.43;;;;;;;;;;5074199;28;20107;-80
2022/01/29 00:19:13;;;;;;;19.75;12.77;;;;;;;;;;5074292;28;20442;-79
2022/01/29 00:21:39;;;;;;;19.38;13.60;;;;;;;;;;5074245;28;20025;-81
2022/01/29 00:24:05;;;;;;;16.90;12.05;;;;;;;;;;5074138;28;20078;-80
2022/01/29 00:26:32;;;;;;;20.95;13.15;;;;;;;;;;5074449;28;20028;-80
2022/01/29 00:29:04;;;;;;;24.17;15.43;;;;;;;;;;5074287;28;20383;-81
2022/01/29 00:31:31;;;;;;;29.73;18.20;;;;;;;;;;5074219;28;20033;-78
2022/01/29 00:33:57;;;;;;;19.98;12.77;;;;;;;;;;5073864;28;20494;-80
2022/01/29 00:36:23;;;;;;;20.70;13.30;;;;;;;;;;5074305;28;20025;-79
2022/01/29 00:38:49;;;;;;;22.42;13.90;;;;;;;;;;5077981;28;20073;-79
2022/01/29 00:41:15;;;;;;;25.77;14.93;;;;;;;;;;5093697;28;20031;-81
2022/01/29 00:43:41;;;;;;;22.42;12.88;;;;;;;;;;5094068;28;20110;-82
2022/01/29 00:46:08;;;;;;;22.55;14.88;;;;;;;;;;5086493;28;20538;-79
2022/01/29 00:48:34;;;;;;;22.58;12.65;;;;;;;;;;5076287;28;20109;-79
2022/01/29 00:51:02;;;;;;;19.65;12.15;;;;;;;;;;5072984;28;20154;-81
2022/01/29 00:53:28;;;;;;;18.85;12.57;;;;;;;;;;5073718;28;20037;-80
2022/01/29 00:55:54;;;;;;;20.58;14.63;;;;;;;;;;5073803;28;20040;-80
2022/01/29 00:58:20;;;;;;;31.63;20.05;;;;;;;;;;5073634;28;20021;-80
2022/01/29 01:00:46;;;;;;;26.83;18.83;;;;;;;;;;5073786;28;20021;-81
2022/01/29 01:03:13;;;;;;;22.63;13.13;;;;;;;;;;5073266;28;20028;-79
2022/01/29 01:05:39;;;;;;;20.00;12.90;;;;;;;;;;5073310;28;20032;-79
2022/01/29 01:08:07;;;;;;;19.45;13.40;;;;;;;;;;5073298;28;20024;-79
2022/01/29 01:10:34;;;;;;;18.55;12.60;;;;;;;;;;5073389;28;20356;-78
2022/01/29 01:13:00;;;;;;;19.17;12.07;;;;;;;;;;5073291;28;20036;-82
2022/01/29 01:15:26;;;;;;;25.92;15.30;;;;;;;;;;5073233;28;20056;-79
2022/01/29 01:17:52;;;;;;;25.05;16.85;;;;;;;;;;5071994;28;20502;-81
2022/01/29 01:20:18;;;;;;;18.20;12.98;;;;;;;;;;5071655;28;20028;-79
2022/01/29 01:22:44;;;;;;;18.77;12.07;;;;;;;;;;5071915;28;20782;-79
2022/01/29 01:25:10;;;;;;;17.80;11.43;;;;;;;;;;5072943;28;20021;-79
2022/01/29 01:27:37;;;;;;;16.80;11.35;;;;;;;;;;5073119;28;20475;-80
2022/01/29 01:30:04;;;;;;;16.45;11.02;;;;;;;;;;5073123;28;20490;-79
2022/01/29 01:32:30;;;;;;;17.90;11.73;;;;;;;;;;5072847;28;20029;-80
2022/01/29 01:35:06;;;;;;;16.52;11.90;;;;;;;;;;5073123;28;20028;-82
2022/01/29 01:37:56;;;;;;;17.70;12.68;;;;;;;;;;5072833;28;20549;-80
2022/01/29 01:40:22;;;;;;;24.13;16.25;;;;;;;;;;5072586;28;20148;-82
2022/01/29 01:42:51;;;;;;;26.13;15.80;;;;;;;;;;5072331;28;20023;-80
2022/01/29 01:45:18;;;;;;;28.63;21.08;;;;;;;;;;5072597;28;20021;-80
2022/01/29 01:47:44;;;;;;;28.70;19.15;;;;;;;;;;5072522;28;20024;-79
2022/01/29 01:50:10;;;;;;;25.63;17.13;;;;;;;;;;5072478;28;20094;-79
2022/01/29 01:52:36;;;;;;;16.33;12.65;;;;;;;;;;5072500;28;20400;-80
2022/01/29 01:55:03;;;;;;;18.13;11.13;;;;;;;;;;5072277;28;20094;-81
2022/01/29 01:57:29;;;;;;;16.08;10.82;;;;;;;;;;5077691;28;20024;-81
2022/01/29 01:59:56;;;;;;;16.48;11.23;;;;;;;;;;5080622;28;20040;-79
2022/01/29 02:02:22;;;;;;;14.55;10.30;;;;;;;;;;5082452;28;20020;-81
2022/01/29 02:04:49;;;;;;;19.27;10.02;;;;;;;;;;5082421;28;20505;-80
2022/01/29 02:07:15;;;;;;;22.80;11.05;;;;;;;;;;5079834;28;20384;-80
2022/01/29 02:09:41;;;;;;;18.45;12.05;;;;;;;;;;5081137;28;20024;-82
2022/01/29 02:12:09;;;;;;;19.85;11.13;;;;;;;;;;5072026;28;20450;-79
2022/01/29 02:14:35;;;;;;;22.23;11.88;;;;;;;;;;5072364;28;20028;-81
2022/01/29 02:17:02;;;;;;;23.95;14.90;;;;;;;;;;5072029;28;20027;-79
2022/01/29 02:19:28;;;;;;;17.35;10.50;;;;;;;;;;5071228;28;20715;-79
2022/01/29 02:21:56;;;;;;;14.02;8.70;;;;;;;;;;5071944;28;20021;-79
2022/01/29 02:24:22;;;;;;;11.52;7.85;;;;;;;;;;5072257;28;20374;-78
2022/01/29 02:26:48;;;;;;;17.33;10.02;;;;;;;;;;5072070;28;20032;-82
2022/01/29 02:29:15;;;;;;;14.95;9.65;;;;;;;;;;5072093;28;20054;-81
2022/01/29 02:31:48;;;;;;;14.25;8.18;;;;;;;;;;5072178;28;20419;-82
2022/01/29 02:34:15;;;;;;;22.60;14.23;;;;;;;;;;5070984;28;20033;-81
2022/01/29 02:36:42;;;;;;;21.42;11.98;;;;;;;;;;5072055;28;20498;-79
2022/01/29 02:39:09;;;;;;;17.92;10.75;;;;;;;;;;5070670;28;20028;-82
2022/01/29 02:41:39;;;;;;;16.98;10.45;;;;;;;;;;5072094;28;20071;-81
2022/01/29 02:44:06;;;;;;;16.58;10.18;;;;;;;;;;5071586;28;20056;-79
2022/01/29 02:49:13;;;;;;;26.33;13.48;;;;;;;;;;5071842;28;20048;-79
2022/01/29 02:52:06;;;;;;;24.00;13.63;;;;;;;;;;5071687;28;20104;-82
2022/01/29 02:54:34;;;;;;;23.35;12.35;;;;;;;;;;5067044;28;20083;-82
2022/01/29 02:57:00;;;;;;;23.92;12.90;;;;;;;;;;5071838;28;20399;-79
2022/01/29 02:59:26;;;;;;;20.40;11.10;;;;;;;;;;5071662;28;20024;-81
2022/01/29 03:01:52;;;;;;;14.85;9.75;;;;;;;;;;5071793;28;20029;-81
2022/01/29 03:04:18;;;;;;;12.27;8.63;;;;;;;;;;5071666;28;20032;-82
2022/01/29 03:06:45;;;;;;;12.90;8.35;;;;;;;;;;5071750;28;20024;-79
2022/01/29 03:09:11;;;;;;;17.48;10.43;;;;;;;;;;5071758;28;20029;-80
2022/01/29 03:11:37;;;;;;;16.60;10.90;;;;;;;;;;5071511;28;20027;-82
2022/01/29 03:14:03;;;;;;;13.00;9.43;;;;;;;;;;5072455;28;20041;-81
2022/01/29 03:16:29;;;;;;;14.20;9.23;;;;;;;;;;5075285;28;20387;-79
2022/01/29 03:18:56;;;;;;;18.17;9.10;;;;;;;;;;5075500;28;20443;-78
2022/01/29 03:21:22;;;;;;;13.43;8.63;;;;;;;;;;5074147;28;20024;-81
2022/01/29 03:23:48;;;;;;;14.70;8.75;;;;;;;;;;5075149;28;20029;-79
2022/01/29 03:26:14;;;;;;;14.23;8.07;;;;;;;;;;5075316;28;20052;-81
2022/01/29 03:28:40;;;;;;;18.13;11.02;;;;;;;;;;5075107;28;20078;-82
2022/01/29 03:31:06;;;;;;;18.00;12.23;;;;;;;;;;5075350;28;20028;-82
2022/01/29 03:33:32;;;;;;;17.95;10.95;;;;;;;;;;5073444;28;20075;-82
2022/01/29 03:35:59;;;;;;;18.45;11.35;;;;;;;;;;5075096;28;20028;-81
2022/01/29 03:38:25;;;;;;;17.58;11.18;;;;;;;;;;5075096;28;20499;-82
2022/01/29 03:40:52;;;;;;;16.20;10.82;;;;;;;;;;5073617;28;20115;-79
2022/01/29 03:43:27;;;;;;;15.15;9.95;;;;;;;;;;5075051;28;20086;-82
2022/01/29 03:45:53;;;;;;;16.70;10.57;;;;;;;;;;5083058;28;20034;-82
2022/01/29 03:48:20;;;;;;;15.65;10.80;;;;;;;;;;5084822;28;20028;-82
2022/01/29 03:50:46;;;;;;;60.03;35.97;;;;;;;;;;5083521;28;20080;-80
2022/01/29 03:53:12;;;;;;;25.15;16.52;;;;;;;;;;5084076;28;20540;-80
2022/01/29 03:55:39;;;;;;;18.95;12.60;;;;;;;;;;5084915;28;20036;-81
2022/01/29 03:58:05;;;;;;;16.92;10.45;;;;;;;;;;5083486;28;20085;-78
2022/01/29 04:00:31;;;;;;;14.85;10.30;;;;;;;;;;5094750;28;20028;-81
2022/01/29 04:02:57;;;;;;;12.07;8.55;;;;;;;;;;5094961;28;20024;-80
2022/01/29 04:05:26;;;;;;;12.57;8.70;;;;;;;;;;5094996;28;20028;-79
2022/01/29 04:07:52;;;;;;;11.68;8.32;;;;;;;;;;5094844;28;20031;-81
2022/01/29 04:10:20;;;;;;;9.65;6.60;;;;;;;;;;5094685;28;20497;-81
2022/01/29 04:12:49;;;;;;;10.80;7.43;;;;;;;;;;5094378;28;20545;-80
2022/01/29 04:15:16;;;;;;;12.45;8.60;;;;;;;;;;5094611;28;20078;-81
2022/01/29 04:17:42;;;;;;;10.98;7.28;;;;;;;;;;5094357;28;20376;-81
2022/01/29 04:20:08;;;;;;;12.95;9.20;;;;;;;;;;5094510;28;20043;-80
2022/01/29 04:22:34;;;;;;;13.80;9.10;;;;;;;;;;5094283;28;20103;-79
2022/01/29 04:25:01;;;;;;;12.30;8.85;;;;;;;;;;5093204;28;20024;-79
2022/01/29 04:27:36;;;;;;;10.70;7.88;;;;;;;;;;5094605;28;20028;-80
2022/01/29 04:30:08;;;;;;;13.52;8.23;;;;;;;;;;5094255;28;20024;-82
2022/01/29 04:32:57;;;;;;;11.68;7.82;;;;;;;;;;5104272;28;20036;-79
2022/01/29 04:35:20;;;;;;;10.85;7.75;;;;;;;;;;5094011;28;20047;-78
2022/01/29 04:37:49;;;;;;;14.80;9.75;;;;;;;;;;5094531;28;20023;-80
2022/01/29 04:40:16;;;;;;;12.13;8.13;;;;;;;;;;5112597;28;20031;-78
2022/01/29 04:42:42;;;;;;;13.00;7.95;;;;;;;;;;5114462;28;20039;-78
2022/01/29 04:45:08;;;;;;;15.00;9.63;;;;;;;;;;5114006;28;20035;-79
2022/01/29 04:47:34;;;;;;;12.32;8.60;;;;;;;;;;5114152;28;20062;-79
2022/01/29 04:50:00;;;;;;;11.07;8.05;;;;;;;;;;5113903;28;20051;-78
2022/01/29 04:52:26;;;;;;;12.13;8.57;;;;;;;;;;5113645;28;20031;-78
2022/01/29 04:54:53;;;;;;;11.32;8.13;;;;;;;;;;5114148;28;20363;-78
2022/01/29 04:57:19;;;;;;;16.88;11.02;;;;;;;;;;5113720;28;20042;-79
2022/01/29 04:59:45;;;;;;;12.40;9.30;;;;;;;;;;5114135;28;20024;-79
2022/01/29 05:02:11;;;;;;;16.67;9.73;;;;;;;;;;5113565;28;20370;-78
2022/01/29 05:04:37;;;;;;;18.73;11.10;;;;;;;;;;5113993;28;20031;-78
2022/01/29 05:07:03;;;;;;;12.95;8.75;;;;;;;;;;5113969;28;20508;-79
2022/01/29 05:09:30;;;;;;;11.32;8.30;;;;;;;;;;5113829;28;20107;-78
2022/01/29 05:11:58;;;;;;;12.90;8.40;;;;;;;;;;5113728;28;20040;-80
2022/01/29 05:28:16;;;;;;;11.15;8.65;;;;;;;;;;5114222;28;20039;-80
2022/01/29 05:30:42;;;;;;;12.07;7.20;;;;;;;;;;5114109;28;20049;-80
2022/01/29 05:33:08;;;;;;;11.82;7.93;;;;;;;;;;5113311;28;20038;-79
2022/01/29 05:35:34;;;;;;;12.50;9.13;;;;;;;;;;5114444;28;20470;-79
2022/01/29 05:38:00;;;;;;;17.80;10.27;;;;;;;;;;5113555;28;20031;-80
2022/01/29 05:40:26;;;;;;;14.43;9.50;;;;;;;;;;5113485;28;20027;-82
2022/01/29 05:42:52;;;;;;;15.32;9.48;;;;;;;;;;5113312;28;20050;-79
2022/01/29 05:45:18;;;;;;;13.88;9.05;;;;;;;;;;5094862;28;20031;-80
2022/01/29 05:47:45;;;;;;;15.40;9.77;;;;;;;;;;5113361;28;20031;-79
2022/01/29 05:50:12;;;;;;;17.20;10.23;;;;;;;;;;5112849;28;20052;-79
2022/01/29 05:52:38;;;;;;;17.92;11.52;;;;;;;;;;5113082;28;20040;-81
2022/01/29 05:55:04;;;;;;;14.55;9.93;;;;;;;;;;5112848;28;20031;-80
2022/01/29 05:57:31;;;;;;;20.25;12.27;;;;;;;;;;5112998;28;20047;-82
2022/01/29 05:59:57;;;;;;;14.18;9.35;;;;;;;;;;5094713;28;20466;-79
2022/01/29 06:02:23;;;;;;;16.48;11.57;;;;;;;;;;5112558;28;20073;-82
2022/01/29 06:04:49;;;;;;;13.82;9.55;;;;;;;;;;5112941;28;20393;-81
2022/01/29 06:07:15;;;;;;;20.90;12.13;;;;;;;;;;5112874;28;20098;-80
2022/01/29 06:09:41;;;;;;;19.25;11.95;;;;;;;;;;5112875;28;20028;-79
2022/01/29 06:12:08;;;;;;;32.22;18.58;;;;;;;;;;5111309;28;20028;-79
2022/01/29 06:14:34;;;;;;;24.45;13.90;;;;;;;;;;5112800;28;20024;-80
2022/01/29 06:17:00;;;;;;;14.18;8.90;;;;;;;;;;5112999;28;20030;-81
2022/01/29 06:19:26;;;;;;;16.42;11.05;;;;;;;;;;5112661;28;20027;-81
2022/01/29 06:21:52;;;;;;;16.33;10.80;;;;;;;;;;5112858;28;20035;-79
2022/01/29 06:24:18;;;;;;;17.52;12.77;;;;;;;;;;5112431;28;20020;-80
2022/01/29 06:26:44;;;;;;;19.45;12.18;;;;;;;;;;5112952;28;20028;-79
2022/01/29 06:29:11;;;;;;;16.33;10.15;;;;;;;;;;5112766;28;20055;-83
2022/01/29 06:31:37;;;;;;;12.27;8.98;;;;;;;;;;5112676;28;20050;-81
2022/01/29 06:34:03;;;;;;;13.70;8.73;;;;;;;;;;5113002;28;20032;-80
2022/01/29 06:36:29;;;;;;;15.60;11.13;;;;;;;;;;5112281;28;20482;-82
2022/01/29 06:38:55;;;;;;;16.67;11.27;;;;;;;;;;5112951;28;20403;-80
2022/01/29 06:41:21;;;;;;;19.65;12.40;;;;;;;;;;5113136;28;20019;-81
2022/01/29 06:43:47;;;;;;;39.35;24.05;;;;;;;;;;5111782;28;20455;-80
2022/01/29 06:46:14;;;;;;;56.72;34.67;;;;;;;;;;5114653;28;20079;-83
2022/01/29 06:48:40;;;;;;;47.47;28.73;;;;;;;;;;5115019;28;20078;-78
2022/01/29 06:51:06;;;;;;;30.73;20.05;;;;;;;;;;5116765;28;20023;-80
2022/01/29 06:53:32;;;;;;;24.17;16.17;;;;;;;;;;5117318;28;20031;-82
2022/01/29 06:55:58;;;;;;;29.20;19.13;;;;;;;;;;5118471;28;20036;-79
2022/01/29 06:58:24;;;;;;;36.30;24.48;;;;;;;;;;5117831;28;20028;-81
2022/01/29 07:00:50;;;;;;;26.40;19.33;;;;;;;;;;5116105;28;20032;-81
2022/01/29 07:03:17;;;;;;;23.73;16.05;;;;;;;;;;5116838;28;20454;-80
2022/01/29 07:05:43;;;;;;;18.48;11.57;;;;;;;;;;5116337;28;20031;-80
2022/01/29 07:08:09;;;;;;;19.17;13.27;;;;;;;;;;5116304;28;20041;-83
2022/01/29 07:10:37;;;;;;;14.02;8.90;;;;;;;;;;5116308;28;20024;-82
2022/01/29 07:13:03;;;;;;;24.75;14.35;;;;;;;;;;5116298;28;20078;-79
2022/01/29 07:15:29;;;;;;;24.83;15.15;;;;;;;;;;5119365;28;20020;-82
2022/01/29 07:17:55;;;;;;;27.85;17.17;;;;;;;;;;5117222;28;20474;-79
2022/01/29 07:20:22;;;;;;;29.70;15.57;;;;;;;;;;5116098;28;20062;-78
2022/01/29 07:22:48;;;;;;;42.03;24.33;;;;;;;;;;5115700;28;20027;-77
2022/01/29 07:25:14;;;;;;;58.58;28.08;;;;;;;;;;5114674;28;20382;-78
2022/01/29 07:27:40;;;;;;;28.95;17.58;;;;;;;;;;5115863;28;20059;-79
2022/01/29 07:30:07;;;;;;;10.75;6.53;;;;;;;;;;5115921;28;20035;-77
2022/01/29 07:32:33;;;;;;;10.18;6.45;;;;;;;;;;5115442;28;20039;-79
2022/01/29 07:34:59;;;;;;;10.60;7.80;;;;;;;;;;5097223;28;20390;-80
2022/01/29 07:37:25;;;;;;;14.23;9.05;;;;;;;;;;5115749;28;20031;-78
2022/01/29 07:39:51;;;;;;;12.13;7.75;;;;;;;;;;5115544;28;20024;-80
2022/01/29 07:42:17;;;;;;;8.65;5.95;;;;;;;;;;5109696;28;20032;-80
2022/01/29 07:44:44;;;;;;;8.45;5.38;;;;;;;;;;5095133;28;20027;-79
2022/01/29 07:47:10;;;;;;;12.82;8.40;;;;;;;;;;5095243;28;20436;-80
2022/01/29 07:49:36;;;;;;;10.80;6.32;;;;;;;;;;5095074;28;20115;-79
2022/01/29 07:52:02;;;;;;;9.10;5.88;;;;;;;;;;5094842;28;20035;-78
2022/01/29 07:54:28;;;;;;;6.53;4.53;;;;;;;;;;5094966;28;20509;-79
2022/01/29 07:56:54;;;;;;;6.18;3.55;;;;;;;;;;5094792;28;20028;-78
2022/01/29 07:59:21;;;;;;;9.35;5.30;;;;;;;;;;5093544;28;20390;-81
2022/01/29 08:01:47;;;;;;;6.57;4.07;;;;;;;;;;5093258;28;20028;-78
2022/01/29 08:04:13;;;;;;;7.15;4.68;;;;;;;;;;5094745;28;20103;-79
2022/01/29 08:06:39;;;;;;;9.48;6.28;;;;;;;;;;5095045;28;20028;-78
2022/01/29 08:09:08;;;;;;;9.73;6.03;;;;;;;;;;5094458;28;20536;-79
2022/01/29 08:11:34;;;;;;;13.80;6.85;;;;;;;;;;5094837;28;20020;-78
2022/01/29 08:14:00;;;;;;;4.82;3.55;;;;;;;;;;5094316;28;20032;-82
2022/01/29 08:16:26;;;;;;;8.70;5.88;;;;;;;;;;5093280;28;20032;-80
2022/01/29 08:18:53;;;;;;;10.90;7.80;;;;;;;;;;5094408;28;20024;-81
2022/01/29 08:21:19;;;;;;;6.50;4.88;;;;;;;;;;5094447;28;20028;-81
2022/01/29 08:23:45;;;;;;;7.10;3.67;;;;;;;;;;5094732;28;20450;-80
2022/01/29 08:26:12;;;;;;;4.88;4.00;;;;;;;;;;5076375;28;20031;-80
2022/01/29 08:28:38;;;;;;;6.88;5.00;;;;;;;;;;5094510;28;20032;-79
2022/01/29 08:31:05;;;;;;;7.97;6.10;;;;;;;;;;5094271;28;20487;-78
2022/01/29 08:33:31;;;;;;;8.50;5.32;;;;;;;;;;5094072;28;20039;-81
2022/01/29 08:35:58;;;;;;;5.20;4.63;;;;;;;;;;5094170;28;20444;-79
2022/01/29 08:38:24;;;;;;;5.30;3.85;;;;;;;;;;5094114;28;20093;-78
2022/01/29 08:40:51;;;;;;;5.68;4.40;;;;;;;;;;5094651;28;20463;-79
2022/01/29 08:43:17;;;;;;;5.80;4.45;;;;;;;;;;5094374;28;20028;-77
2022/01/29 08:45:43;;;;;;;9.00;6.32;;;;;;;;;;5094587;28;20491;-82
2022/01/29 08:48:09;;;;;;;7.18;5.43;;;;;;;;;;5094921;28;20064;-82
2022/01/29 08:50:35;;;;;;;5.47;3.20;;;;;;;;;;5077380;28;20095;-78
2022/01/29 08:53:01;;;;;;;8.40;6.05;;;;;;;;;;5095227;28;20085;-82
2022/01/29 08:55:28;;;;;;;6.72;4.85;;;;;;;;;;5093724;28;20036;-79
2022/01/29 08:57:54;;;;;;;5.68;3.58;;;;;;;;;;5093992;28;20118;-78
2022/01/29 09:00:20;;;;;;;7.72;4.95;;;;;;;;;;5093500;28;20033;-80
2022/01/29 09:02:46;;;;;;;9.60;6.28;;;;;;;;;;5075533;28;20028;-82
2022/01/29 09:05:13;;;;;;;9.85;5.50;;;;;;;;;;5093615;28;20032;-82
2022/01/29 09:07:39;;;;;;;8.77;4.82;;;;;;;;;;5093774;28;20036;-79
2022/01/29 09:10:05;;;;;;;6.40;4.75;;;;;;;;;;5093483;28;20106;-79
2022/01/29 09:12:32;;;;;;;6.30;3.97;;;;;;;;;;5092806;28;20031;-82
2022/01/29 09:14:58;;;;;;;5.40;2.80;;;;;;;;;;5093284;28;20024;-82
2022/01/29 09:17:24;;;;;;;7.88;4.85;;;;;;;;;;5093174;28;20035;-79
2022/01/29 09:19:50;;;;;;;4.85;3.90;;;;;;;;;;5093170;28;20077;-79
2022/01/29 09:22:16;;;;;;;5.15;3.10;;;;;;;;;;5092996;28;20031;-85
2022/01/29 09:24:43;;;;;;;5.40;3.53;;;;;;;;;;5093263;28;20024;-79
2022/01/29 09:27:09;;;;;;;3.92;3.22;;;;;;;;;;5093031;28;20027;-78
2022/01/29 09:29:35;;;;;;;5.22;2.90;;;;;;;;;;5093120;28;20483;-82
2022/01/29 09:32:01;;;;;;;9.07;7.07;;;;;;;;;;5093230;28;20032;-78
2022/01/29 09:34:27;;;;;;;10.70;6.30;;;;;;;;;;5092805;28;20390;-81
2022/01/29 09:36:53;;;;;;;8.98;6.40;;;;;;;;;;5093051;28;20028;-82
2022/01/29 09:39:19;;;;;;;9.48;4.38;;;;;;;;;;5092795;28;20035;-78
2022/01/29 09:41:45;;;;;;;12.50;7.10;;;;;;;;;;5093168;28;20035;-79
2022/01/29 09:44:13;;;;;;;8.35;4.45;;;;;;;;;;5092921;28;20024;-83
2022/01/29 09:46:40;;;;;;;14.35;8.75;;;;;;;;;;5092937;28;20098;-82
2022/01/29 09:49:07;;;;;;;16.00;10.27;;;;;;;;;;5092829;28;20098;-79
2022/01/29 09:51:33;;;;;;;6.72;4.38;;;;;;;;;;5092800;28;20032;-81
2022/01/29 09:53:59;;;;;;;4.22;2.90;;;;;;;;;;5092676;28;20060;-77
2022/01/29 09:56:25;;;;;;;5.45;4.18;;;;;;;;;;5092531;28;20077;-79
2022/01/29 09:58:51;;;;;;;11.18;6.65;;;;;;;;;;5092635;28;20556;-82
2022/01/29 10:01:18;;;;;;;7.38;5.00;;;;;;;;;;5092666;28;20467;-77
2022/01/29 10:03:58;;;;;;;3.42;2.72;;;;;;;;;;5092584;28;20032;-81
2022/01/29 10:06:24;;;;;;;4.80;2.97;;;;;;;;;;5092214;28;20028;-81
2022/01/29 10:08:50;;;;;;;6.60;4.55;;;;;;;;;;5092594;28;20047;-80
2022/01/29 10:11:26;;;;;;;6.63;4.80;;;;;;;;;;5092224;28;20028;-78
2022/01/29 10:13:58;;;;;;;7.97;6.25;;;;;;;;;;5092402;28;20028;-79
2022/01/29 10:16:25;;;;;;;13.30;8.68;;;;;;;;;;5092472;28;20028;-79
2022/01/29 10:18:58;;;;;;;5.38;3.85;;;;;;;;;;5092523;28;20432;-80
2022/01/29 10:21:25;;;;;;;5.50;4.38;;;;;;;;;;5092473;28;20048;-79
2022/01/29 10:24:01;;;;;;;8.40;5.40;;;;;;;;;;5091253;28;20479;-81
2022/01/29 10:26:33;;;;;;;7.32;4.22;;;;;;;;;;5092225;28;20373;-82
2022/01/29 10:28:59;;;;;;;5.63;3.78;;;;;;;;;;5092058;28;20057;-82
2022/01/29 10:31:25;;;;;;;6.43;4.45;;;;;;;;;;5092358;28;20093;-86
2022/01/29 10:33:51;;;;;;;10.48;7.55;;;;;;;;;;5091986;28;20035;-81
2022/01/29 10:36:20;;;;;;;10.15;7.53;;;;;;;;;;5092415;28;20470;-80
2022/01/29 10:38:51;;;;;;;7.82;4.22;;;;;;;;;;5091972;28;20028;-80
2022/01/29 10:41:23;;;;;;;10.85;6.70;;;;;;;;;;5091033;28;20115;-82
2022/01/29 10:43:55;;;;;;;5.43;4.20;;;;;;;;;;5091898;28;20016;-81
2022/01/29 10:46:40;;;;;;;6.72;4.78;;;;;;;;;;5092065;28;20056;-77
2022/01/29 10:49:07;;;;;;;4.30;3.17;;;;;;;;;;5091949;28;20165;-80
2022/01/29 10:51:34;;;;;;;4.55;3.50;;;;;;;;;;5091712;28;20029;-77
2022/01/29 10:54:19;;;;;;;4.45;3.20;;;;;;;;;;5090631;28;20052;-81
2022/01/29 10:56:55;;;;;;;5.88;4.13;;;;;;;;;;5092036;28;20027;-79
2022/01/29 10:59:22;;;;;;;8.80;5.22;;;;;;;;;;5092021;28;20025;-79
2022/01/29 11:01:52;;;;;;;7.07;2.90;;;;;;;;;;5091795;28;20026;-80
2022/01/29 11:04:19;;;;;;;6.93;4.28;;;;;;;;;;5091812;28;20028;-79
2022/01/29 11:06:46;;;;;;;8.63;5.43;;;;;;;;;;5091963;28;20111;-84
2022/01/29 11:09:13;;;;;;;7.50;4.45;;;;;;;;;;5091580;28;20034;-80
2022/01/29 11:11:45;;;;;;;6.97;4.82;;;;;;;;;;5073698;28;20394;-81
2022/01/29 11:14:12;;;;;;;10.73;6.65;;;;;;;;;;5091747;28;20074;-82
2022/01/29 11:16:39;;;;;;;7.00;4.97;;;;;;;;;;5091645;28;20048;-80
2022/01/29 11:19:05;;;;;;;8.90;4.50;;;;;;;;;;5091733;28;20474;-77
2022/01/29 11:21:32;;;;;;;7.57;6.72;;;;;;;;;;5091684;28;20390;-77
2022/01/29 11:23:59;;;;;;;10.40;8.73;;;;;;;;;;5091520;28;20451;-80
2022/01/29 11:26:25;;;;;;;7.35;5.32;;;;;;;;;;5091776;28;20029;-80
2022/01/29 11:29:11;;;;;;;7.90;4.93;;;;;;;;;;5091656;28;20027;-80
2022/01/29 11:31:37;;;;;;;7.72;5.47;;;;;;;;;;5091625;28;20032;-80
2022/01/29 11:34:05;;;;;;;10.02;5.93;;;;;;;;;;5092122;28;20470;-83
2022/01/29 11:36:49;;;;;;;7.65;5.60;;;;;;;;;;5095636;28;20039;-78
2022/01/29 11:39:19;;;;;;;10.50;5.78;;;;;;;;;;5095440;28;20099;-79
2022/01/29 11:41:45;;;;;;;10.65;6.47;;;;;;;;;;5095261;28;20059;-80
2022/01/29 11:44:30;;;;;;;7.50;4.13;;;;;;;;;;5094003;28;20024;-79
2022/01/29 11:46:56;;;;;;;7.63;6.43;;;;;;;;;;5095057;28;20021;-78
2022/01/29 11:49:22;;;;;;;11.02;6.40;;;;;;;;;;5094726;28;20120;-76
2022/01/29 11:51:52;;;;;;;8.57;4.97;;;;;;;;;;5095191;28;20475;-79
2022/01/29 11:54:20;;;;;;;10.55;6.90;;;;;;;;;;5094768;28;20040;-77
2022/01/29 11:56:47;;;;;;;10.75;5.45;;;;;;;;;;5094817;28;20032;-78
2022/01/29 11:59:26;;;;;;;10.07;6.38;;;;;;;;;;5094801;28;20031;-78
2022/01/29 12:01:53;;;;;;;7.32;5.93;;;;;;;;;;5094743;28;20097;-79
2022/01/29 12:04:20;;;;;;;8.07;5.82;;;;;;;;;;5094914;28;20073;-78
2022/01/29 12:09:52;;;;;;;9.68;7.13;;;;;;;;;;5094932;28;20115;-80
2022/01/29 12:12:28;;;;;;;8.00;5.53;;;;;;;;;;5094668;28;20024;-81
2022/01/29 12:14:55;;;;;;;7.40;5.25;;;;;;;;;;5095050;28;20436;-78
2022/01/29 12:17:51;;;;;;;10.95;7.90;;;;;;;;;;5094467;28;20028;-83
2022/01/29 12:20:24;;;;;;;9.70;6.03;;;;;;;;;;5094515;28;20051;-77
2022/01/29 12:22:51;;;;;;;10.00;6.43;;;;;;;;;;5094279;28;20496;-80
2022/01/29 12:25:18;;;;;;;10.80;8.70;;;;;;;;;;5094584;28;20063;-83
2022/01/29 12:28:11;;;;;;;8.90;7.38;;;;;;;;;;5094362;28;20031;-84
2022/01/29 12:30:38;;;;;;;11.48;7.72;;;;;;;;;;5091453;28;20043;-84
2022/01/29 12:33:09;;;;;;;13.15;9.85;;;;;;;;;;5094059;28;20032;-80
2022/01/29 12:35:42;;;;;;;10.77;7.40;;;;;;;;;;5094222;28;20085;-80
2022/01/29 12:38:10;;;;;;;10.85;9.57;;;;;;;;;;5094222;28;20343;-84
2022/01/29 12:40:40;;;;;;;8.63;6.85;;;;;;;;;;5094059;28;20024;-78
2022/01/29 12:43:28;;;;;;;14.80;9.45;;;;;;;;;;5094380;28;20360;-85
2022/01/29 12:45:55;;;;;;;7.38;5.05;;;;;;;;;;5092935;28;20036;-78
2022/01/29 12:48:21;;;;;;;9.40;6.53;;;;;;;;;;5093886;28;20459;-81
2022/01/29 12:50:48;;;;;;;13.95;9.57;;;;;;;;;;5094064;28;20495;-78
2022/01/29 12:53:19;;;;;;;9.35;6.95;;;;;;;;;;5093804;28;20506;-79
2022/01/29 12:56:05;;;;;;;7.45;5.40;;;;;;;;;;5093600;28;20097;-81
2022/01/29 12:58:33;;;;;;;10.77;9.30;;;;;;;;;;5093613;28;20028;-80
2022/01/29 13:01:06;;;;;;;10.57;6.85;;;;;;;;;;5111228;28;20035;-80
2022/01/29 13:03:33;;;;;;;13.18;9.68;;;;;;;;;;5113997;28;20108;-80
2022/01/29 13:06:06;;;;;;;14.55;7.80;;;;;;;;;;5114094;28;20020;-79
2022/01/29 13:08:32;;;;;;;11.18;6.25;;;;;;;;;;5097108;28;20019;-80
2022/01/29 13:10:58;;;;;;;10.77;8.25;;;;;;;;;;5113779;28;20028;-80
2022/01/29 13:13:28;;;;;;;15.27;8.88;;;;;;;;;;5113702;28;20039;-82
2022/01/29 13:15:54;;;;;;;9.40;7.15;;;;;;;;;;5113514;28;20077;-81
2022/01/29 13:18:21;;;;;;;10.20;7.47;;;;;;;;;;5113811;28;20051;-80
2022/01/29 13:20:47;;;;;;;7.25;5.70;;;;;;;;;;5113623;28;20028;-81
2022/01/29 13:23:13;;;;;;;8.70;6.43;;;;;;;;;;5113621;28;20028;-80
2022/01/29 13:25:40;;;;;;;10.07;8.95;;;;;;;;;;5113647;28;20024;-80
2022/01/29 13:28:08;;;;;;;9.30;6.60;;;;;;;;;;5113610;28;20023;-80
2022/01/29 13:30:35;;;;;;;12.00;7.72;;;;;;;;;;5095324;28;20107;-78
2022/01/29 13:33:19;;;;;;;11.38;9.48;;;;;;;;;;5113544;28;20384;-80
2022/01/29 13:35:48;;;;;;;6.93;5.55;;;;;;;;;;5113476;28;20030;-85
2022/01/29 13:38:17;;;;;;;14.60;8.63;;;;;;;;;;5113362;28;20432;-83
2022/01/29 13:40:43;;;;;;;9.18;6.80;;;;;;;;;;5113557;28;20393;-81
2022/01/29 13:43:10;;;;;;;10.27;7.20;;;;;;;;;;5113442;28;20055;-79
2022/01/29 13:45:48;;;;;;;8.95;5.80;;;;;;;;;;5113044;28;20028;-79
2022/01/29 13:48:15;;;;;;;10.35;7.28;;;;;;;;;;5112914;28;20034;-80
2022/01/29 13:50:45;;;;;;;13.18;8.52;;;;;;;;;;5113333;28;20048;-79
2022/01/29 13:53:18;;;;;;;9.52;7.80;;;;;;;;;;5112968;28;20032;-78
2022/01/29 13:56:02;;;;;;;13.50;10.75;;;;;;;;;;5113373;28;20035;-80
2022/01/29 13:58:44;;;;;;;13.52;10.27;;;;;;;;;;5112451;28;20390;-80
2022/01/29 14:01:11;;;;;;;11.27;8.65;;;;;;;;;;5111587;28;20027;-81
2022/01/29 14:03:55;;;;;;;15.00;9.50;;;;;;;;;;5108942;28;20478;-80
2022/01/29 14:06:21;;;;;;;9.90;7.78;;;;;;;;;;5084110;28;20047;-83
2022/01/29 14:09:06;;;;;;;10.57;7.78;;;;;;;;;;5112110;28;20072;-79
2022/01/29 14:11:51;;;;;;;13.80;9.75;;;;;;;;;;5103318;28;20024;-81
2022/01/29 14:14:17;;;;;;;12.65;7.65;;;;;;;;;;5102207;28;20028;-81
2022/01/29 14:16:43;;;;;;;12.63;6.97;;;;;;;;;;5110661;28;20045;-80
2022/01/29 14:19:17;;;;;;;14.50;9.00;;;;;;;;;;5112335;28;20087;-78
2022/01/29 14:21:43;;;;;;;12.32;9.07;;;;;;;;;;5113135;28;20027;-80
2022/01/29 14:24:10;;;;;;;12.38;10.57;;;;;;;;;;5112484;28;20034;-78
2022/01/29 14:26:36;;;;;;;13.63;9.82;;;;;;;;;;5112817;28;20027;-80
2022/01/29 14:29:02;;;;;;;13.00;9.18;;;;;;;;;;5112285;28;20023;-80
2022/01/29 14:31:28;;;;;;;15.90;10.90;;;;;;;;;;5112790;28;20027;-77
2022/01/29 14:33:54;;;;;;;14.35;9.13;;;;;;;;;;5112528;28;20032;-80
2022/01/29 14:36:21;;;;;;;12.93;9.10;;;;;;;;;;5112600;28;20047;-82
2022/01/29 14:38:47;;;;;;;13.73;8.20;;;;;;;;;;5112643;28;20531;-79
2022/01/29 14:41:14;;;;;;;12.68;8.30;;;;;;;;;;5112275;28;20040;-81
2022/01/29 14:43:40;;;;;;;12.38;8.82;;;;;;;;;;5112713;28;20023;-78
2022/01/29 14:46:06;;;;;;;17.50;10.57;;;;;;;;;;5112108;28;20073;-79
2022/01/29 14:48:33;;;;;;;13.95;8.98;;;;;;;;;;5112441;28;20024;-84
2022/01/29 14:50:59;;;;;;;12.23;8.52;;;;;;;;;;5094350;28;20028;-82
2022/01/29 14:53:25;;;;;;;12.20;8.30;;;;;;;;;;5112270;28;20038;-78